sensor_id;sensor_type;location;lat;lon;timestamp;pressure;altitude;pressure_sealevel;temperature;humidity
75740;BME280;64357;51.344;6.550;2023-09-19T00:01:32;100385.06;;;16.37;100.00
75740;BME280;64357;51.344;6.550;2023-09-19T00:04:00;100375.22;;;16.31;100.00
75740;BME280;64357;51.344;6.550;2023-09-19T00:06:29;100380.03;;;16.26;100.00
75740;BME280;64357;51.344;6.550;2023-09-19T00:08:56;100381.22;;;16.18;100.00
75740;BME280;64357;51.344;6.550;2023-09-19T00:11:24;100380.66;;;16.11;100.00
75740;BME280;64357;51.344;6.550;2023-09-19T00:13:52;100376.72;;;16.16;100.00
75740;BME280;64357;51.344;6.550;2023-09-19T00:16:17;100391.75;;;16.10;100.00
75740;BME280;64357;51.344;6.550;2023-09-19T00:18:44;100386.59;;;16.10;100.00
75740;BME280;64357;51.344;6.550;2023-09-19T00:21:10;100384.25;;;16.13;100.00
75740;BME280;64357;51.344;6.550;2023-09-19T00:23:35;100395.31;;;16.12;100.00
75740;BME280;64357;51.344;6.550;2023-09-19T00:26:03;100401.06;;;16.08;100.00
75740;BME280;64357;51.344;6.550;2023-09-19T00:28:29;100395.03;;;16.07;100.00
75740;BME280;64357;51.344;6.550;2023-09-19T00:30:57;100388.00;;;15.93;100.00
75740;BME280;64357;51.344;6.550;2023-09-19T00:33:26;100390.91;;;15.97;100.00
75740;BME280;64357;51.344;6.550;2023-09-19T00:35:56;100399.09;;;15.92;100.00
75740;BME280;64357;51.344;6.550;2023-09-19T00:38:22;100403.34;;;15.91;100.00
75740;BME280;64357;51.344;6.550;2023-09-19T00:40:52;100404.34;;;15.93;100.00
75740;BME280;64357;51.344;6.550;2023-09-19T00:43:17;100405.13;;;15.92;100.00
75740;BME280;64357;51.344;6.550;2023-09-19T00:45:44;100394.91;;;15.94;100.00
75740;BME280;64357;51.344;6.550;2023-09-19T00:48:10;100399.78;;;15.89;100.00
75740;BME280;64357;51.344;6.550;2023-09-19T00:50:37;100404.50;;;15.83;100.00
75740;BME280;64357;51.344;6.550;2023-09-19T00:53:07;100413.53;;;15.90;100.00
75740;BME280;64357;51.344;6.550;2023-09-19T00:55:33;100409.41;;;15.80;100.00
75740;BME280;64357;51.344;6.550;2023-09-19T00:58:00;100410.09;;;15.78;100.00
75740;BME280;64357;51.344;6.550;2023-09-19T01:00:28;100406.94;;;15.70;100.00
75740;BME280;64357;51.344;6.550;2023-09-19T01:02:54;100413.34;;;15.75;100.00
75740;BME280;64357;51.344;6.550;2023-09-19T01:05:24;100420.69;;;15.82;100.00
75740;BME280;64357;51.344;6.550;2023-09-19T01:07:52;100415.56;;;15.70;100.00
75740;BME280;64357;51.344;6.550;2023-09-19T01:10:19;100429.13;;;15.68;100.00
75740;BME280;64357;51.344;6.550;2023-09-19T01:26:30;100444.09;;;15.62;100.00
75740;BME280;64357;51.344;6.550;2023-09-19T01:31:44;100443.41;;;15.53;100.00
75740;BME280;64357;51.344;6.550;2023-09-19T01:34:10;100449.47;;;15.53;100.00
75740;BME280;64357;51.344;6.550;2023-09-19T01:36:37;100460.47;;;15.62;100.00
75740;BME280;64357;51.344;6.550;2023-09-19T01:39:08;100459.69;;;15.63;100.00
75740;BME280;64357;51.344;6.550;2023-09-19T01:44:15;100464.28;;;15.67;100.00
75740;BME280;64357;51.344;6.550;2023-09-19T01:46:45;100455.75;;;15.57;100.00
75740;BME280;64357;51.344;6.550;2023-09-19T01:51:53;100463.81;;;15.50;100.00
75740;BME280;64357;51.344;6.550;2023-09-19T01:54:31;100463.56;;;15.35;100.00
75740;BME280;64357;51.344;6.550;2023-09-19T01:59:36;100466.47;;;15.39;100.00
75740;BME280;64357;51.344;6.550;2023-09-19T02:02:04;100473.75;;;15.45;100.00
75740;BME280;64357;51.344;6.550;2023-09-19T02:04:34;100467.38;;;15.40;100.00
75740;BME280;64357;51.344;6.550;2023-09-19T02:07:00;100460.66;;;15.30;100.00
75740;BME280;64357;51.344;6.550;2023-09-19T02:09:28;100469.13;;;15.29;100.00
75740;BME280;64357;51.344;6.550;2023-09-19T02:11:54;100467.25;;;15.38;100.00
75740;BME280;64357;51.344;6.550;2023-09-19T02:14:21;100481.81;;;15.38;100.00
75740;BME280;64357;51.344;6.550;2023-09-19T02:16:47;100470.03;;;15.30;100.00
75740;BME280;64357;51.344;6.550;2023-09-19T02:19:13;100479.88;;;15.35;100.00
75740;BME280;64357;51.344;6.550;2023-09-19T02:21:38;100480.56;;;15.33;100.00
75740;BME280;64357;51.344;6.550;2023-09-19T02:24:08;100487.97;;;15.40;100.00
75740;BME280;64357;51.344;6.550;2023-09-19T02:26:33;100484.59;;;15.29;100.00
75740;BME280;64357;51.344;6.550;2023-09-19T02:29:02;100484.13;;;15.23;100.00
75740;BME280;64357;51.344;6.550;2023-09-19T02:31:28;100493.44;;;15.33;100.00
75740;BME280;64357;51.344;6.550;2023-09-19T02:33:54;100479.56;;;15.31;100.00
75740;BME280;64357;51.344;6.550;2023-09-19T02:36:19;100489.28;;;15.23;100.00
75740;BME280;64357;51.344;6.550;2023-09-19T02:38:50;100493.63;;;15.24;100.00
75740;BME280;64357;51.344;6.550;2023-09-19T02:41:16;100495.56;;;15.27;100.00
75740;BME280;64357;51.344;6.550;2023-09-19T02:43:41;100498.34;;;15.30;100.00
75740;BME280;64357;51.344;6.550;2023-09-19T02:46:10;100493.97;;;15.29;100.00
75740;BME280;64357;51.344;6.550;2023-09-19T02:48:38;100500.28;;;15.32;100.00
75740;BME280;64357;51.344;6.550;2023-09-19T02:51:03;100495.13;;;15.32;100.00
75740;BME280;64357;51.344;6.550;2023-09-19T02:53:32;100496.44;;;15.27;100.00
75740;BME280;64357;51.344;6.550;2023-09-19T02:56:00;100507.75;;;15.29;100.00
75740;BME280;64357;51.344;6.550;2023-09-19T02:58:26;100505.97;;;15.28;100.00
75740;BME280;64357;51.344;6.550;2023-09-19T03:00:53;100514.47;;;15.27;100.00
75740;BME280;64357;51.344;6.550;2023-09-19T03:03:20;100519.03;;;15.19;100.00
75740;BME280;64357;51.344;6.550;2023-09-19T03:05:45;100527.19;;;15.14;100.00
75740;BME280;64357;51.344;6.550;2023-09-19T03:08:14;100517.56;;;15.23;100.00
75740;BME280;64357;51.344;6.550;2023-09-19T03:10:45;100512.75;;;15.16;100.00
75740;BME280;64357;51.344;6.550;2023-09-19T03:13:11;100511.19;;;15.18;100.00
75740;BME280;64357;51.344;6.550;2023-09-19T03:15:41;100511.50;;;15.11;100.00
75740;BME280;64357;51.344;6.550;2023-09-19T03:18:08;100506.94;;;15.07;100.00
75740;BME280;64357;51.344;6.550;2023-09-19T03:20:36;100500.66;;;15.03;100.00
75740;BME280;64357;51.344;6.550;2023-09-19T03:23:01;100513.88;;;15.08;100.00
75740;BME280;64357;51.344;6.550;2023-09-19T03:25:27;100510.69;;;15.00;100.00
75740;BME280;64357;51.344;6.550;2023-09-19T03:27:56;100519.13;;;15.09;100.00
75740;BME280;64357;51.344;6.550;2023-09-19T03:30:23;100510.81;;;15.02;100.00
75740;BME280;64357;51.344;6.550;2023-09-19T03:32:50;100520.34;;;15.03;100.00
75740;BME280;64357;51.344;6.550;2023-09-19T03:35:17;100520.41;;;14.92;100.00
75740;BME280;64357;51.344;6.550;2023-09-19T03:37:43;100519.13;;;15.09;100.00
75740;BME280;64357;51.344;6.550;2023-09-19T03:40:10;100513.41;;;15.02;100.00
75740;BME280;64357;51.344;6.550;2023-09-19T03:42:39;100517.81;;;14.92;100.00
75740;BME280;64357;51.344;6.550;2023-09-19T03:45:09;100522.44;;;14.97;100.00
75740;BME280;64357;51.344;6.550;2023-09-19T03:47:38;100517.41;;;14.98;100.00
75740;BME280;64357;51.344;6.550;2023-09-19T03:50:05;100522.78;;;15.01;100.00
75740;BME280;64357;51.344;6.550;2023-09-19T03:52:32;100525.53;;;14.92;100.00
75740;BME280;64357;51.344;6.550;2023-09-19T03:54:59;100526.78;;;14.98;100.00
75740;BME280;64357;51.344;6.550;2023-09-19T03:57:25;100523.25;;;15.07;100.00
75740;BME280;64357;51.344;6.550;2023-09-19T03:59:50;100520.44;;;15.04;100.00
75740;BME280;64357;51.344;6.550;2023-09-19T04:02:18;100519.44;;;15.02;100.00
75740;BME280;64357;51.344;6.550;2023-09-19T04:04:51;100521.53;;;14.96;100.00
75740;BME280;64357;51.344;6.550;2023-09-19T04:07:17;100524.44;;;15.01;100.00
75740;BME280;64357;51.344;6.550;2023-09-19T04:09:44;100517.81;;;14.92;100.00
75740;BME280;64357;51.344;6.550;2023-09-19T04:12:11;100516.63;;;14.99;100.00
75740;BME280;64357;51.344;6.550;2023-09-19T04:14:37;100518.53;;;15.02;100.00
75740;BME280;64357;51.344;6.550;2023-09-19T04:17:03;100515.72;;;14.99;100.00
75740;BME280;64357;51.344;6.550;2023-09-19T04:19:30;100514.94;;;15.00;100.00
75740;BME280;64357;51.344;6.550;2023-09-19T04:21:55;100515.25;;;14.92;100.00
75740;BME280;64357;51.344;6.550;2023-09-19T04:24:21;100512.78;;;14.94;100.00
75740;BME280;64357;51.344;6.550;2023-09-19T04:26:46;100512.22;;;14.86;100.00
75740;BME280;64357;51.344;6.550;2023-09-19T04:29:12;100516.16;;;14.93;100.00
75740;BME280;64357;51.344;6.550;2023-09-19T04:31:39;100516.03;;;14.91;100.00
75740;BME280;64357;51.344;6.550;2023-09-19T04:34:09;100500.78;;;14.83;100.00
75740;BME280;64357;51.344;6.550;2023-09-19T04:36:35;100514.69;;;14.85;100.00
75740;BME280;64357;51.344;6.550;2023-09-19T04:39:02;100507.19;;;14.88;100.00
75740;BME280;64357;51.344;6.550;2023-09-19T04:41:30;100513.53;;;14.81;100.00
75740;BME280;64357;51.344;6.550;2023-09-19T04:43:55;100519.56;;;14.82;100.00
75740;BME280;64357;51.344;6.550;2023-09-19T04:46:21;100514.00;;;14.87;100.00
75740;BME280;64357;51.344;6.550;2023-09-19T04:48:48;100516.81;;;14.90;100.00
75740;BME280;64357;51.344;6.550;2023-09-19T04:51:14;100522.28;;;14.83;100.00
75740;BME280;64357;51.344;6.550;2023-09-19T04:53:44;100518.25;;;14.87;100.00
75740;BME280;64357;51.344;6.550;2023-09-19T04:56:09;100531.47;;;14.91;100.00
75740;BME280;64357;51.344;6.550;2023-09-19T04:58:34;100525.00;;;14.97;100.00
75740;BME280;64357;51.344;6.550;2023-09-19T05:01:00;100540.97;;;14.92;100.00
75740;BME280;64357;51.344;6.550;2023-09-19T05:03:30;100542.44;;;15.01;100.00
75740;BME280;64357;51.344;6.550;2023-09-19T05:05:56;100547.00;;;14.93;100.00
75740;BME280;64357;51.344;6.550;2023-09-19T05:08:24;100551.78;;;14.88;100.00
75740;BME280;64357;51.344;6.550;2023-09-19T05:10:53;100540.28;;;14.83;100.00
75740;BME280;64357;51.344;6.550;2023-09-19T05:13:21;100567.38;;;14.90;100.00
75740;BME280;64357;51.344;6.550;2023-09-19T05:15:48;100570.28;;;14.94;100.00
75740;BME280;64357;51.344;6.550;2023-09-19T05:18:16;100570.28;;;14.94;100.00
75740;BME280;64357;51.344;6.550;2023-09-19T05:20:44;100575.66;;;14.98;100.00
75740;BME280;64357;51.344;6.550;2023-09-19T05:23:11;100578.59;;;15.02;100.00
75740;BME280;64357;51.344;6.550;2023-09-19T05:25:40;100592.28;;;15.13;100.00
75740;BME280;64357;51.344;6.550;2023-09-19T05:28:07;100593.72;;;15.09;100.00
75740;BME280;64357;51.344;6.550;2023-09-19T05:30:33;100605.91;;;15.12;100.00
75740;BME280;64357;51.344;6.550;2023-09-19T05:32:58;100607.34;;;15.30;100.00
75740;BME280;64357;51.344;6.550;2023-09-19T05:35:26;100588.59;;;15.09;100.00
75740;BME280;64357;51.344;6.550;2023-09-19T05:37:55;100613.41;;;15.31;100.00
75740;BME280;64357;51.344;6.550;2023-09-19T05:40:23;100610.25;;;15.35;100.00
75740;BME280;64357;51.344;6.550;2023-09-19T05:42:50;100604.00;;;15.31;100.00
75740;BME280;64357;51.344;6.550;2023-09-19T05:45:16;100601.69;;;15.46;100.00
75740;BME280;64357;51.344;6.550;2023-09-19T05:47:47;100615.63;;;15.60;100.00
75740;BME280;64357;51.344;6.550;2023-09-19T05:50:13;100614.59;;;15.58;100.00
75740;BME280;64357;51.344;6.550;2023-09-19T05:52:40;100622.31;;;15.58;100.00
75740;BME280;64357;51.344;6.550;2023-09-19T05:55:06;100619.69;;;15.46;100.00
75740;BME280;64357;51.344;6.550;2023-09-19T05:57:36;100633.28;;;15.55;100.00
75740;BME280;64357;51.344;6.550;2023-09-19T06:00:05;100629.81;;;15.55;100.00
75740;BME280;64357;51.344;6.550;2023-09-19T06:02:36;100623.16;;;15.46;100.00
75740;BME280;64357;51.344;6.550;2023-09-19T06:05:01;100621.63;;;15.49;100.00
75740;BME280;64357;51.344;6.550;2023-09-19T06:07:27;100617.28;;;15.59;100.00
75740;BME280;64357;51.344;6.550;2023-09-19T06:10:01;100608.44;;;15.56;100.00
75740;BME280;64357;51.344;6.550;2023-09-19T06:12:26;100612.97;;;15.70;100.00
75740;BME280;64357;51.344;6.550;2023-09-19T06:14:53;100601.56;;;15.66;100.00
75740;BME280;64357;51.344;6.550;2023-09-19T06:17:19;100606.03;;;15.69;100.00
75740;BME280;64357;51.344;6.550;2023-09-19T06:19:48;100613.84;;;15.70;100.00
75740;BME280;64357;51.344;6.550;2023-09-19T06:22:18;100611.53;;;15.73;100.00
75740;BME280;64357;51.344;6.550;2023-09-19T06:24:54;100620.03;;;15.72;100.00
75740;BME280;64357;51.344;6.550;2023-09-19T06:27:20;100592.25;;;15.68;100.00
75740;BME280;64357;51.344;6.550;2023-09-19T06:29:49;100577.00;;;15.60;100.00
75740;BME280;64357;51.344;6.550;2023-09-19T06:32:17;100614.31;;;15.77;100.00
75740;BME280;64357;51.344;6.550;2023-09-19T06:34:42;100609.06;;;15.75;100.00
75740;BME280;64357;51.344;6.550;2023-09-19T06:37:11;100598.75;;;15.75;100.00
75740;BME280;64357;51.344;6.550;2023-09-19T06:39:48;100620.38;;;15.77;100.00
75740;BME280;64357;51.344;6.550;2023-09-19T06:42:23;100627.34;;;15.78;100.00
75740;BME280;64357;51.344;6.550;2023-09-19T06:45:01;100582.16;;;15.60;100.00
75740;BME280;64357;51.344;6.550;2023-09-19T06:47:26;100594.28;;;15.72;100.00
75740;BME280;64357;51.344;6.550;2023-09-19T06:53:14;100599.44;;;15.72;100.00
75740;BME280;64357;51.344;6.550;2023-09-19T06:55:39;100586.69;;;15.52;100.00
75740;BME280;64357;51.344;6.550;2023-09-19T06:58:14;100594.94;;;15.70;100.00
75740;BME280;64357;51.344;6.550;2023-09-19T07:00:43;100635.75;;;15.99;100.00
75740;BME280;64357;51.344;6.550;2023-09-19T07:03:09;100632.38;;;16.00;100.00
75740;BME280;64357;51.344;6.550;2023-09-19T07:05:39;100632.75;;;16.16;100.00
75740;BME280;64357;51.344;6.550;2023-09-19T07:08:08;100638.44;;;16.12;100.00
75740;BME280;64357;51.344;6.550;2023-09-19T07:10:38;100636.66;;;16.11;100.00
75740;BME280;64357;51.344;6.550;2023-09-19T07:13:14;100633.28;;;16.12;100.00
75740;BME280;64357;51.344;6.550;2023-09-19T07:15:42;100640.38;;;16.26;100.00
75740;BME280;64357;51.344;6.550;2023-09-19T07:18:15;100630.06;;;16.26;100.00
75740;BME280;64357;51.344;6.550;2023-09-19T07:20:48;100653.91;;;16.36;100.00
75740;BME280;64357;51.344;6.550;2023-09-19T07:23:18;100660.09;;;16.38;100.00
75740;BME280;64357;51.344;6.550;2023-09-19T07:25:47;100659.88;;;16.46;100.00
75740;BME280;64357;51.344;6.550;2023-09-19T07:28:12;100663.91;;;16.43;100.00
75740;BME280;64357;51.344;6.550;2023-09-19T07:30:38;100667.16;;;16.52;100.00
75740;BME280;64357;51.344;6.550;2023-09-19T07:33:07;100643.75;;;16.49;100.00
75740;BME280;64357;51.344;6.550;2023-09-19T07:35:38;100653.81;;;16.46;100.00
75740;BME280;64357;51.344;6.550;2023-09-19T07:38:05;100646.88;;;16.57;100.00
75740;BME280;64357;51.344;6.550;2023-09-19T07:40:31;100648.44;;;16.66;100.00
75740;BME280;64357;51.344;6.550;2023-09-19T07:42:56;100662.16;;;16.77;100.00
75740;BME280;64357;51.344;6.550;2023-09-19T07:45:23;100655.16;;;16.76;100.00
75740;BME280;64357;51.344;6.550;2023-09-19T07:47:50;100650.69;;;16.73;100.00
75740;BME280;64357;51.344;6.550;2023-09-19T07:50:19;100645.53;;;16.62;100.00
75740;BME280;64357;51.344;6.550;2023-09-19T07:52:48;100659.66;;;16.67;100.00
75740;BME280;64357;51.344;6.550;2023-09-19T07:55:17;100657.72;;;16.88;100.00
75740;BME280;64357;51.344;6.550;2023-09-19T07:57:44;100652.25;;;16.83;100.00
75740;BME280;64357;51.344;6.550;2023-09-19T08:00:13;100659.72;;;17.03;100.00
75740;BME280;64357;51.344;6.550;2023-09-19T08:02:40;100662.25;;;17.15;100.00
75740;BME280;64357;51.344;6.550;2023-09-19T08:05:06;100651.38;;;17.19;100.00
75740;BME280;64357;51.344;6.550;2023-09-19T08:07:32;100656.81;;;16.99;100.00
75740;BME280;64357;51.344;6.550;2023-09-19T08:09:58;100655.69;;;17.07;100.00
75740;BME280;64357;51.344;6.550;2023-09-19T08:12:24;100651.09;;;17.28;100.00
75740;BME280;64357;51.344;6.550;2023-09-19T08:14:49;100661.00;;;17.22;99.99
75740;BME280;64357;51.344;6.550;2023-09-19T08:17:18;100665.31;;;17.10;100.00
75740;BME280;64357;51.344;6.550;2023-09-19T08:19:50;100664.44;;;17.34;99.11
75740;BME280;64357;51.344;6.550;2023-09-19T08:22:53;100680.75;;;17.21;99.79
75740;BME280;64357;51.344;6.550;2023-09-19T08:25:27;100663.06;;;17.14;98.62
75740;BME280;64357;51.344;6.550;2023-09-19T08:27:57;100650.69;;;17.22;98.24
75740;BME280;64357;51.344;6.550;2023-09-19T08:30:31;100642.72;;;17.19;97.76
75740;BME280;64357;51.344;6.550;2023-09-19T08:33:06;100685.88;;;17.58;97.50
75740;BME280;64357;51.344;6.550;2023-09-19T08:35:58;100659.13;;;17.44;97.83
75740;BME280;64357;51.344;6.550;2023-09-19T08:38:40;100672.31;;;17.85;94.86
75740;BME280;64357;51.344;6.550;2023-09-19T08:41:41;100666.34;;;17.62;95.43
75740;BME280;64357;51.344;6.550;2023-09-19T08:44:31;100671.75;;;17.90;94.37
75740;BME280;64357;51.344;6.550;2023-09-19T08:47:15;100674.31;;;17.90;93.92
75740;BME280;64357;51.344;6.550;2023-09-19T08:50:04;100701.50;;;18.09;93.82
75740;BME280;64357;51.344;6.550;2023-09-19T08:52:42;100693.16;;;18.14;92.08
75740;BME280;64357;51.344;6.550;2023-09-19T08:55:14;100704.97;;;18.10;93.25
75740;BME280;64357;51.344;6.550;2023-09-19T08:57:46;100696.06;;;18.31;91.92
75740;BME280;64357;51.344;6.550;2023-09-19T09:00:16;100656.56;;;18.34;90.87
75740;BME280;64357;51.344;6.550;2023-09-19T09:02:48;100676.53;;;18.23;90.88
75740;BME280;64357;51.344;6.550;2023-09-19T09:05:16;100664.53;;;18.50;90.20
75740;BME280;64357;51.344;6.550;2023-09-19T09:07:42;100677.59;;;18.65;89.66
75740;BME280;64357;51.344;6.550;2023-09-19T09:10:09;100685.28;;;18.77;89.54
75740;BME280;64357;51.344;6.550;2023-09-19T09:12:35;100691.00;;;18.86;88.91
75740;BME280;64357;51.344;6.550;2023-09-19T09:15:05;100685.53;;;18.81;87.85
75740;BME280;64357;51.344;6.550;2023-09-19T09:17:30;100681.22;;;19.08;85.15
75740;BME280;64357;51.344;6.550;2023-09-19T09:19:56;100678.34;;;19.04;86.63
75740;BME280;64357;51.344;6.550;2023-09-19T09:22:22;100675.44;;;18.99;86.25
75740;BME280;64357;51.344;6.550;2023-09-19T09:24:56;100685.25;;;18.90;88.29
75740;BME280;64357;51.344;6.550;2023-09-19T09:27:26;100680.50;;;19.11;86.79
75740;BME280;64357;51.344;6.550;2023-09-19T09:29:52;100677.78;;;19.51;84.97
75740;BME280;64357;51.344;6.550;2023-09-19T09:32:22;100672.13;;;19.15;86.22
75740;BME280;64357;51.344;6.550;2023-09-19T09:34:56;100661.44;;;18.96;87.70
75740;BME280;64357;51.344;6.550;2023-09-19T09:37:22;100665.91;;;18.98;86.67
75740;BME280;64357;51.344;6.550;2023-09-19T09:39:56;100682.28;;;18.71;88.83
75740;BME280;64357;51.344;6.550;2023-09-19T09:42:34;100679.88;;;18.74;88.93
75740;BME280;64357;51.344;6.550;2023-09-19T09:45:20;100685.31;;;19.05;86.53
75740;BME280;64357;51.344;6.550;2023-09-19T09:47:58;100673.38;;;19.07;86.91
75740;BME280;64357;51.344;6.550;2023-09-19T09:53:27;100681.56;;;19.56;82.78
75740;BME280;64357;51.344;6.550;2023-09-19T09:56:05;100685.75;;;19.26;83.55
75740;BME280;64357;51.344;6.550;2023-09-19T09:58:35;100672.97;;;18.87;82.54
75740;BME280;64357;51.344;6.550;2023-09-19T10:01:03;100683.59;;;19.05;82.10
75740;BME280;64357;51.344;6.550;2023-09-19T10:03:35;100679.22;;;19.59;79.48
75740;BME280;64357;51.344;6.550;2023-09-19T10:06:09;100693.31;;;20.07;78.25
75740;BME280;64357;51.344;6.550;2023-09-19T10:12:00;100675.84;;;19.89;77.14
75740;BME280;64357;51.344;6.550;2023-09-19T10:14:30;100656.06;;;20.65;74.27
75740;BME280;64357;51.344;6.550;2023-09-19T10:17:05;100662.19;;;21.62;69.71
75740;BME280;64357;51.344;6.550;2023-09-19T10:19:37;100666.03;;;21.36;70.31
75740;BME280;64357;51.344;6.550;2023-09-19T10:22:11;100664.59;;;21.26;68.87
75740;BME280;64357;51.344;6.550;2023-09-19T10:24:49;100656.41;;;21.19;70.52
75740;BME280;64357;51.344;6.550;2023-09-19T10:27:26;100658.28;;;22.39;66.51
75740;BME280;64357;51.344;6.550;2023-09-19T10:29:57;100650.41;;;22.03;67.86
75740;BME280;64357;51.344;6.550;2023-09-19T10:32:26;100640.53;;;22.66;64.04
75740;BME280;64357;51.344;6.550;2023-09-19T10:34:55;100658.88;;;22.33;64.68
75740;BME280;64357;51.344;6.550;2023-09-19T10:37:24;100649.78;;;22.07;65.19
75740;BME280;64357;51.344;6.550;2023-09-19T10:39:56;100662.28;;;22.14;65.34
75740;BME280;64357;51.344;6.550;2023-09-19T10:42:23;100649.06;;;21.59;65.84
75740;BME280;64357;51.344;6.550;2023-09-19T10:45:02;100637.56;;;21.88;65.03
75740;BME280;64357;51.344;6.550;2023-09-19T10:47:33;100641.47;;;21.15;67.75
75740;BME280;64357;51.344;6.550;2023-09-19T10:49:59;100643.97;;;21.78;66.16
75740;BME280;64357;51.344;6.550;2023-09-19T10:52:29;100647.88;;;22.04;65.51
75740;BME280;64357;51.344;6.550;2023-09-19T10:54:58;100639.88;;;22.70;61.63
75740;BME280;64357;51.344;6.550;2023-09-19T10:57:31;100644.78;;;23.19;59.97
75740;BME280;64357;51.344;6.550;2023-09-19T11:00:06;100641.59;;;22.87;60.30
75740;BME280;64357;51.344;6.550;2023-09-19T11:03:23;100662.06;;;22.09;63.24
75740;BME280;64357;51.344;6.550;2023-09-19T11:06:02;100653.69;;;21.48;65.75
75740;BME280;64357;51.344;6.550;2023-09-19T11:08:30;100660.41;;;21.28;66.66
75740;BME280;64357;51.344;6.550;2023-09-19T11:10:57;100644.22;;;21.01;66.68
75740;BME280;64357;51.344;6.550;2023-09-19T11:13:27;100657.63;;;20.78;68.39
75740;BME280;64357;51.344;6.550;2023-09-19T11:26:43;100656.38;;;22.00;62.64
75740;BME280;64357;51.344;6.550;2023-09-19T11:29:27;100646.56;;;22.47;59.97
75740;BME280;64357;51.344;6.550;2023-09-19T11:31:57;100660.50;;;22.13;61.15
75740;BME280;64357;51.344;6.550;2023-09-19T11:39:34;100653.88;;;23.09;56.96
75740;BME280;64357;51.344;6.550;2023-09-19T11:42:40;100642.22;;;23.01;55.75
75740;BME280;64357;51.344;6.550;2023-09-19T11:48:21;100644.50;;;23.51;53.83
75740;BME280;64357;51.344;6.550;2023-09-19T11:50:52;100637.53;;;23.70;52.94
75740;BME280;64357;51.344;6.550;2023-09-19T11:53:21;100645.25;;;23.68;52.76
75740;BME280;64357;51.344;6.550;2023-09-19T11:55:51;100646.09;;;23.28;54.20
75740;BME280;64357;51.344;6.550;2023-09-19T11:58:21;100634.53;;;23.04;54.34
75740;BME280;64357;51.344;6.550;2023-09-19T12:00:55;100620.88;;;22.90;53.79
75740;BME280;64357;51.344;6.550;2023-09-19T12:03:29;100614.00;;;22.92;54.12
75740;BME280;64357;51.344;6.550;2023-09-19T12:05:55;100625.16;;;23.27;53.61
75740;BME280;64357;51.344;6.550;2023-09-19T12:08:24;100613.97;;;23.68;52.61
75740;BME280;64357;51.344;6.550;2023-09-19T12:10:52;100622.97;;;23.36;53.49
75740;BME280;64357;51.344;6.550;2023-09-19T12:13:21;100619.09;;;24.07;51.69
75740;BME280;64357;51.344;6.550;2023-09-19T12:15:49;100607.81;;;24.08;51.36
75740;BME280;64357;51.344;6.550;2023-09-19T12:20:53;100615.38;;;23.61;51.65
75740;BME280;64357;51.344;6.550;2023-09-19T12:23:19;100605.25;;;23.67;51.93
75740;BME280;64357;51.344;6.550;2023-09-19T12:25:46;100589.16;;;23.18;52.19
75740;BME280;64357;51.344;6.550;2023-09-19T12:28:19;100589.97;;;23.36;51.40
75740;BME280;64357;51.344;6.550;2023-09-19T12:30:48;100593.03;;;23.08;53.46
75740;BME280;64357;51.344;6.550;2023-09-19T12:33:20;100588.28;;;23.38;53.63
75740;BME280;64357;51.344;6.550;2023-09-19T12:35:56;100587.78;;;23.46;53.66
75740;BME280;64357;51.344;6.550;2023-09-19T12:38:28;100576.25;;;23.61;52.74
75740;BME280;64357;51.344;6.550;2023-09-19T12:40:57;100581.94;;;23.51;53.41
75740;BME280;64357;51.344;6.550;2023-09-19T12:43:25;100586.97;;;23.67;52.73
75740;BME280;64357;51.344;6.550;2023-09-19T12:45:54;100577.25;;;23.84;51.73
75740;BME280;64357;51.344;6.550;2023-09-19T12:48:26;100580.91;;;23.88;52.12
75740;BME280;64357;51.344;6.550;2023-09-19T12:51:08;100589.91;;;23.56;53.10
75740;BME280;64357;51.344;6.550;2023-09-19T12:53:45;100576.88;;;23.56;53.10
75740;BME280;64357;51.344;6.550;2023-09-19T12:56:14;100572.13;;;23.26;54.26
75740;BME280;64357;51.344;6.550;2023-09-19T12:58:53;100570.16;;;22.83;56.16
75740;BME280;64357;51.344;6.550;2023-09-19T13:01:24;100579.63;;;22.44;56.98
75740;BME280;64357;51.344;6.550;2023-09-19T13:04:17;100582.00;;;22.40;57.06
75740;BME280;64357;51.344;6.550;2023-09-19T13:06:48;100589.81;;;22.22;57.98
75740;BME280;64357;51.344;6.550;2023-09-19T13:09:17;100588.97;;;22.05;59.11
75740;BME280;64357;51.344;6.550;2023-09-19T13:11:43;100588.22;;;21.90;59.64
75740;BME280;64357;51.344;6.550;2023-09-19T13:14:21;100578.97;;;22.13;59.62
75740;BME280;64357;51.344;6.550;2023-09-19T13:22:50;100582.13;;;21.55;61.26
75740;BME280;64357;51.344;6.550;2023-09-19T13:24:51;100594.28;;;21.56;61.96
75740;BME280;64357;51.344;6.550;2023-09-19T13:27:18;100596.56;;;21.66;62.13
75740;BME280;64357;51.344;6.550;2023-09-19T13:29:44;100599.03;;;21.47;63.20
75740;BME280;64357;51.344;6.550;2023-09-19T13:32:09;100586.75;;;21.12;64.26
75740;BME280;64357;51.344;6.550;2023-09-19T13:34:36;100594.81;;;21.33;63.81
75740;BME280;64357;51.344;6.550;2023-09-19T13:37:03;100589.69;;;21.18;64.87
75740;BME280;64357;51.344;6.550;2023-09-19T13:39:29;100593.41;;;21.23;65.19
75740;BME280;64357;51.344;6.550;2023-09-19T13:41:58;100575.16;;;21.05;65.04
75740;BME280;64357;51.344;6.550;2023-09-19T13:44:25;100600.28;;;21.22;65.74
75740;BME280;64357;51.344;6.550;2023-09-19T13:46:51;100591.69;;;20.91;66.82
75740;BME280;64357;51.344;6.550;2023-09-19T13:49:19;100587.91;;;21.00;66.14
75740;BME280;64357;51.344;6.550;2023-09-19T13:51:46;100596.25;;;21.11;65.55
75740;BME280;64357;51.344;6.550;2023-09-19T13:54:11;100579.09;;;20.98;65.58
75740;BME280;64357;51.344;6.550;2023-09-19T13:56:40;100581.88;;;20.85;66.16